createdAt,value
2023-11-11T00:00:02.514Z,89.50
2023-11-11T00:02:31.578Z,83.30
2023-11-11T00:04:59.045Z,84.40
2023-11-11T00:07:26.396Z,84.40
2023-11-11T00:09:54.939Z,85.20
2023-11-11T00:12:22.861Z,79.10
2023-11-11T00:14:51.910Z,83.20
2023-11-11T00:17:18.986Z,87.30
2023-11-11T00:19:46.258Z,90.50
2023-11-11T00:22:13.988Z,89.90
2023-11-11T00:24:41.079Z,89.00
2023-11-11T00:27:08.111Z,82.60
2023-11-11T00:29:35.859Z,69.70
2023-11-11T00:32:04.173Z,48.90
2023-11-11T00:34:31.399Z,51.50
2023-11-11T00:36:59.128Z,60.50
2023-11-11T00:39:27.176Z,59.60
2023-11-11T00:41:54.169Z,65.30
2023-11-11T00:44:22.499Z,67.10
2023-11-11T00:46:49.525Z,68.70
2023-11-11T00:49:16.597Z,72.60
2023-11-11T00:51:43.971Z,77.10
2023-11-11T00:54:11.662Z,84.00
2023-11-11T00:56:39.898Z,87.70
2023-11-11T00:59:07.292Z,88.90
2023-11-11T01:01:36.055Z,91.10
2023-11-11T01:04:05.952Z,79.20
2023-11-11T01:06:34.619Z,67.50
2023-11-11T01:09:02.176Z,71.20
2023-11-11T01:11:30.320Z,60.30
2023-11-11T01:13:57.364Z,60.40
2023-11-11T01:16:24.467Z,57.10
2023-11-11T01:18:52.253Z,61.60
2023-11-11T01:21:19.433Z,47.00
2023-11-11T01:23:46.723Z,33.20
2023-11-11T01:26:13.897Z,41.70
2023-11-11T01:28:41.324Z,36.80
2023-11-11T01:31:08.885Z,37.10
2023-11-11T01:33:36.092Z,31.40
2023-11-11T01:36:05.867Z,27.70
2023-11-11T01:38:33.241Z,35.80
2023-11-11T01:41:00.406Z,42.40
2023-11-11T01:43:27.383Z,50.70
2023-11-11T01:45:56.816Z,50.10
2023-11-11T01:48:24.185Z,50.20
2023-11-11T01:50:51.597Z,55.30
2023-11-11T01:53:19.192Z,49.10
2023-11-11T01:55:47.591Z,51.70
2023-11-11T01:58:18.367Z,50.20
2023-11-11T02:00:46.179Z,51.30
2023-11-11T02:03:15.286Z,51.30
2023-11-11T02:05:44.085Z,50.50
2023-11-11T02:08:11.880Z,52.20
2023-11-11T02:10:39.825Z,49.60
2023-11-11T02:13:07.603Z,28.00
2023-11-11T02:15:36.628Z,28.20
2023-11-11T02:18:06.984Z,29.20
2023-11-11T02:20:34.949Z,38.00
2023-11-11T02:23:03.663Z,40.10
2023-11-11T02:25:31.464Z,39.60
2023-11-11T02:27:59.254Z,40.40
2023-11-11T02:30:27.634Z,33.10
2023-11-11T02:32:54.824Z,18.30
2023-11-11T02:35:21.861Z,1.00
2023-11-11T02:37:48.811Z,1.00
2023-11-11T02:40:16.981Z,12.00
2023-11-11T02:42:44.539Z,15.60
2023-11-11T02:45:12.873Z,21.20
2023-11-11T02:47:40.127Z,26.20
2023-11-11T02:50:08.111Z,29.30
2023-11-11T02:52:35.793Z,30.80
2023-11-11T02:55:02.835Z,36.70
2023-11-11T02:57:29.974Z,46.60
2023-11-11T02:59:57.148Z,40.60
2023-11-11T03:02:25.868Z,40.40
2023-11-11T03:04:53.759Z,51.20
2023-11-11T03:07:20.773Z,52.80
2023-11-11T03:09:47.788Z,59.10
2023-11-11T03:12:14.979Z,52.50
2023-11-11T03:14:42.163Z,52.10
2023-11-11T03:17:09.910Z,53.40
2023-11-11T03:19:37.146Z,54.60
2023-11-11T03:22:05.188Z,40.90
2023-11-11T03:24:32.518Z,41.30
2023-11-11T03:26:59.531Z,51.10
2023-11-11T03:29:26.921Z,52.90
2023-11-11T03:31:54.184Z,43.10
2023-11-11T03:34:21.306Z,37.20
2023-11-11T03:36:48.499Z,47.00
2023-11-11T03:39:15.639Z,57.90
2023-11-11T03:41:42.678Z,61.20
2023-11-11T03:44:12.517Z,55.30
2023-11-11T03:46:39.740Z,24.10
2023-11-11T03:49:07.067Z,8.00
2023-11-11T03:51:34.228Z,9.30
2023-11-11T03:54:01.426Z,9.00
2023-11-11T03:56:28.571Z,9.10
2023-11-11T03:58:55.565Z,16.20
2023-11-11T04:01:22.700Z,7.20
2023-11-11T04:03:49.993Z,16.40
2023-11-11T04:06:17.306Z,19.00
2023-11-11T04:08:44.657Z,24.20
2023-11-11T04:11:11.689Z,29.40
2023-11-11T04:13:40.674Z,27.40
2023-11-11T04:16:11.466Z,25.40
2023-11-11T04:18:39.306Z,24.10
2023-11-11T04:21:06.804Z,25.90
2023-11-11T04:23:34.213Z,28.50
2023-11-11T04:26:02.360Z,28.10
2023-11-11T04:28:30.001Z,18.70
2023-11-11T04:30:56.954Z,35.30
2023-11-11T04:33:24.242Z,39.20
2023-11-11T04:35:54.094Z,1.00
2023-11-11T04:38:26.719Z,6.80
2023-11-11T04:40:56.513Z,12.60
2023-11-11T04:43:23.561Z,14.70
2023-11-11T04:45:50.701Z,4.70
2023-11-11T04:48:17.766Z,1.00
2023-11-11T04:50:44.849Z,16.30
2023-11-11T04:53:11.798Z,27.70
2023-11-11T04:55:38.751Z,34.30
2023-11-11T04:58:05.737Z,28.80
2023-11-11T05:00:32.943Z,23.50
2023-11-11T05:03:02.081Z,15.70
2023-11-11T05:05:29.693Z,14.80
2023-11-11T05:07:56.794Z,8.50
2023-11-11T05:10:23.865Z,2.60
2023-11-11T05:12:52.809Z,1.00
2023-11-11T05:15:25.124Z,12.60
2023-11-11T05:17:52.452Z,16.90
2023-11-11T05:20:19.428Z,10.70
2023-11-11T05:22:46.526Z,5.30
2023-11-11T05:25:13.872Z,1.30
2023-11-11T05:27:41.402Z,8.60
2023-11-11T05:30:09.928Z,1.00
2023-11-11T05:32:37.315Z,1.00
2023-11-11T05:35:07.113Z,1.00
2023-11-11T05:37:34.374Z,1.00
2023-11-11T05:40:01.397Z,1.00
2023-11-11T05:42:28.442Z,1.00
2023-11-11T05:44:55.607Z,2.60
2023-11-11T05:47:22.658Z,11.70
2023-11-11T05:49:50.501Z,5.40
2023-11-11T05:52:17.610Z,6.80
2023-11-11T05:54:45.360Z,14.00
2023-11-11T05:57:12.598Z,16.90
2023-11-11T05:59:40.543Z,17.10
2023-11-11T06:02:07.558Z,9.10
2023-11-11T06:04:35.804Z,19.60
2023-11-11T06:07:02.946Z,24.00
2023-11-11T06:09:32.093Z,28.20
2023-11-11T06:11:59.545Z,29.50
2023-11-11T06:14:28.311Z,29.60
2023-11-11T06:16:55.442Z,27.30
2023-11-11T06:19:24.965Z,30.00
2023-11-11T06:21:52.155Z,29.40
2023-11-11T06:24:19.628Z,27.60
2023-11-11T06:26:46.802Z,28.70
2023-11-11T06:29:13.898Z,31.20
2023-11-11T06:31:40.950Z,38.10
2023-11-11T06:34:08.297Z,31.60
2023-11-11T06:36:35.920Z,15.30
2023-11-11T06:39:03.875Z,14.10
2023-11-11T06:41:30.883Z,1.00
2023-11-11T06:43:57.857Z,1.00
2023-11-11T06:46:24.906Z,14.70
2023-11-11T06:48:51.915Z,15.70
2023-11-11T06:51:19.073Z,16.00
2023-11-11T06:53:46.458Z,18.60
2023-11-11T06:56:17.181Z,15.10
2023-11-11T06:58:44.474Z,6.70
2023-11-11T07:01:13.930Z,7.30
2023-11-11T07:03:41.076Z,8.70
2023-11-11T07:06:09.165Z,1.70
2023-11-11T07:08:36.193Z,1.90
2023-11-11T07:11:16.580Z,4.10
2023-11-11T07:13:45.354Z,12.40
2023-11-11T07:16:14.749Z,5.50
2023-11-11T07:18:42.464Z,5.30
2023-11-11T07:21:18.973Z,15.90
2023-11-11T07:23:46.085Z,12.30
2023-11-11T07:26:13.280Z,23.60
2023-11-11T07:28:40.171Z,20.10
2023-11-11T07:31:08.978Z,9.00
2023-11-11T07:33:39.515Z,17.70
2023-11-11T07:36:07.881Z,21.40
2023-11-11T07:38:36.580Z,14.30
2023-11-11T07:41:04.023Z,22.20
2023-11-11T07:43:31.113Z,37.40
2023-11-11T07:45:58.194Z,42.60
2023-11-11T07:48:25.522Z,54.20
2023-11-11T07:50:52.647Z,69.30
2023-11-11T07:53:20.909Z,69.00
2023-11-11T07:55:48.039Z,78.70
2023-11-11T08:00:45.591Z,78.30
2023-11-11T08:03:12.579Z,66.70
2023-11-11T08:05:39.642Z,71.40
2023-11-11T08:08:14.555Z,68.50
2023-11-11T08:10:43.793Z,69.60
2023-11-11T08:13:12.131Z,62.90
2023-11-11T08:15:39.214Z,69.60
2023-11-11T08:18:06.635Z,73.00
2023-11-11T08:20:33.862Z,71.80
2023-11-11T08:23:01.184Z,71.80
2023-11-11T08:25:28.244Z,69.30
2023-11-11T08:27:56.738Z,69.80
2023-11-11T08:30:23.750Z,78.50
2023-11-11T08:32:50.893Z,75.50
2023-11-11T08:35:18.284Z,79.40
2023-11-11T08:37:46.271Z,82.90
2023-11-11T08:40:14.380Z,91.40
2023-11-11T08:42:42.024Z,91.00
2023-11-11T08:45:11.470Z,90.90
2023-11-11T08:47:40.336Z,93.30
2023-11-11T08:50:11.265Z,92.30
2023-11-11T08:52:43.093Z,83.00
2023-11-11T08:55:12.230Z,77.00
2023-11-11T08:57:40.122Z,76.70
2023-11-11T09:00:13.348Z,73.40
2023-11-11T09:02:40.950Z,67.60
2023-11-11T09:05:08.984Z,68.70
2023-11-11T09:07:36.476Z,70.40
2023-11-11T09:10:04.901Z,73.10
2023-11-11T09:12:33.617Z,76.10
2023-11-11T09:15:02.959Z,76.40
2023-11-11T09:17:37.078Z,51.80
2023-11-11T09:20:10.809Z,64.90
2023-11-11T09:22:39.801Z,59.80
2023-11-11T09:25:09.161Z,37.50
2023-11-11T09:27:37.146Z,47.60
2023-11-11T09:30:06.693Z,67.10
2023-11-11T09:32:34.977Z,85.10
2023-11-11T09:35:04.349Z,76.90
2023-11-11T09:37:35.470Z,90.70
2023-11-11T09:40:07.827Z,84.40
2023-11-11T09:42:35.257Z,84.50
2023-11-11T09:47:35.799Z,64.20
2023-11-11T09:50:09.347Z,73.80
2023-11-11T09:52:38.136Z,74.40
2023-11-11T09:55:09.890Z,40.80
2023-11-11T09:57:41.555Z,36.10
2023-11-11T10:00:12.689Z,33.80
2023-11-11T10:02:42.257Z,47.70
2023-11-11T10:05:14.795Z,59.70
2023-11-11T10:07:44.088Z,55.60
2023-11-11T10:10:11.306Z,48.00
2023-11-11T10:12:41.449Z,54.40
2023-11-11T10:15:12.202Z,55.10
2023-11-11T10:17:40.821Z,59.60
2023-11-11T10:20:31.709Z,56.40
2023-11-11T10:23:01.680Z,45.90
2023-11-11T10:25:29.199Z,42.30
2023-11-11T10:27:57.027Z,51.30
2023-11-11T10:30:29.267Z,45.80
2023-11-11T10:32:59.673Z,68.10
2023-11-11T10:35:28.884Z,63.20
2023-11-11T10:37:56.622Z,86.70
2023-11-11T10:40:24.407Z,93.60
2023-11-11T10:42:52.336Z,95.50
2023-11-11T10:45:23.415Z,95.10
2023-11-11T10:47:50.554Z,92.50
2023-11-11T10:50:18.589Z,90.30
2023-11-11T10:52:45.730Z,96.10
2023-11-11T10:55:15.143Z,95.40
2023-11-11T10:57:48.372Z,94.30
2023-11-11T11:00:25.295Z,92.90
2023-11-11T11:02:57.643Z,96.70
2023-11-11T11:05:25.841Z,94.00
2023-11-11T11:08:07.423Z,92.10
2023-11-11T11:10:48.624Z,93.30
2023-11-11T11:13:19.871Z,66.00
2023-11-11T11:15:48.342Z,82.30
2023-11-11T11:18:23.918Z,67.20
2023-11-11T11:20:54.131Z,55.50
2023-11-11T11:23:23.695Z,48.20
2023-11-11T11:25:54.724Z,58.50
2023-11-11T11:28:24.074Z,49.10
2023-11-11T11:31:04.082Z,59.40
2023-11-11T11:33:37.465Z,47.30
2023-11-11T11:36:10.744Z,32.50
2023-11-11T11:38:40.152Z,19.90
2023-11-11T11:41:27.569Z,10.70
2023-11-11T11:43:56.968Z,16.90
2023-11-11T11:46:25.463Z,1.00
2023-11-11T11:48:53.384Z,2.00
2023-11-11T11:51:22.183Z,10.90
2023-11-11T11:53:51.145Z,1.00
2023-11-11T11:56:31.504Z,1.00
2023-11-11T11:59:02.669Z,1.00
2023-11-11T12:01:36.450Z,1.00
2023-11-11T12:04:05.164Z,1.00
2023-11-11T12:06:41.187Z,1.00
2023-11-11T12:09:13.325Z,1.00
2023-11-11T12:11:40.307Z,1.00
2023-11-11T12:14:10.275Z,1.00
2023-11-11T12:16:42.765Z,1.00
2023-11-11T12:19:09.854Z,1.00
2023-11-11T12:21:39.141Z,1.00
2023-11-11T12:24:06.641Z,1.00
2023-11-11T12:26:37.651Z,1.00
2023-11-11T12:29:05.652Z,1.00
2023-11-11T12:31:32.903Z,1.00
2023-11-11T12:33:59.970Z,1.00
2023-11-11T12:36:27.065Z,1.00
2023-11-11T12:39:15.168Z,1.00
2023-11-11T12:41:48.139Z,1.00
2023-11-11T12:44:16.116Z,1.00
2023-11-11T12:46:44.638Z,1.00
2023-11-11T12:49:19.335Z,1.00
2023-11-11T12:51:46.863Z,1.00
2023-11-11T12:54:15.476Z,1.00
2023-11-11T12:56:50.145Z,1.00
2023-11-11T12:59:17.401Z,1.00
2023-11-11T13:01:44.495Z,1.00
2023-11-11T13:04:16.517Z,99.90
2023-11-11T13:06:46.180Z,99.90
2023-11-11T13:09:20.650Z,99.90
2023-11-11T13:11:49.758Z,99.90
2023-11-11T13:14:21.843Z,99.90
2023-11-11T13:16:51.156Z,99.90
2023-11-11T13:19:19.422Z,99.90
2023-11-11T13:21:48.888Z,99.90
2023-11-11T13:24:16.370Z,1.00
2023-11-11T13:26:44.069Z,99.90
2023-11-11T13:29:11.051Z,99.90
2023-11-11T13:31:38.171Z,99.90
2023-11-11T13:34:12.157Z,99.90
2023-11-11T13:36:41.525Z,99.90
2023-11-11T13:39:21.252Z,99.90
2023-11-11T13:41:48.814Z,99.90
2023-11-11T13:44:16.202Z,99.90
2023-11-11T13:46:43.309Z,99.90
2023-11-11T13:49:10.469Z,99.90
2023-11-11T13:51:37.436Z,99.90
2023-11-11T13:54:05.025Z,99.90
2023-11-11T13:56:32.194Z,99.90
2023-11-11T13:59:02.038Z,99.90
2023-11-11T14:01:30.258Z,99.90
2023-11-11T14:03:58.026Z,99.90
2023-11-11T14:06:26.315Z,14.50
2023-11-11T14:08:59.112Z,1.00
2023-11-11T14:11:28.676Z,1.00
2023-11-11T14:13:56.098Z,1.00
2023-11-11T14:16:25.143Z,1.00
2023-11-11T14:18:52.458Z,1.00
2023-11-11T14:21:19.828Z,1.00
2023-11-11T14:23:46.921Z,1.00
2023-11-11T14:26:14.536Z,1.00
2023-11-11T14:28:41.682Z,1.00
2023-11-11T14:31:08.716Z,1.00
2023-11-11T14:33:36.084Z,1.00
2023-11-11T14:36:03.320Z,1.00
2023-11-11T14:38:30.262Z,99.90
2023-11-11T14:40:58.058Z,99.90
2023-11-11T14:43:25.635Z,99.90
2023-11-11T14:45:52.647Z,99.90
2023-11-11T14:48:21.839Z,99.90
2023-11-11T14:50:48.702Z,99.90
2023-11-11T14:53:16.173Z,1.00
2023-11-11T14:55:43.392Z,1.00
2023-11-11T14:58:10.422Z,1.00
2023-11-11T15:00:38.794Z,1.00
2023-11-11T15:03:06.148Z,1.00
2023-11-11T15:05:33.280Z,1.00
2023-11-11T15:08:00.462Z,1.00
2023-11-11T15:10:29.746Z,1.00
2023-11-11T15:13:03.280Z,1.00
2023-11-11T15:15:34.741Z,1.00
2023-11-11T15:18:01.792Z,1.00
2023-11-11T15:20:28.828Z,1.00
2023-11-11T15:23:04.287Z,1.00
2023-11-11T15:25:32.187Z,2.10
2023-11-11T15:28:03.836Z,5.60
2023-11-11T15:30:31.588Z,11.10
2023-11-11T15:33:01.011Z,17.30
2023-11-11T15:35:29.556Z,16.80
2023-11-11T15:37:58.399Z,21.20
2023-11-11T15:40:25.336Z,21.50
2023-11-11T15:42:52.467Z,25.90
2023-11-11T15:45:21.460Z,34.80
2023-11-11T15:47:49.431Z,40.70
2023-11-11T15:50:16.619Z,41.80
2023-11-11T15:52:44.105Z,45.10
2023-11-11T15:55:16.159Z,45.50
2023-11-11T15:57:43.526Z,47.80
2023-11-11T16:00:11.944Z,52.10
2023-11-11T16:02:40.789Z,54.60
2023-11-11T16:05:10.634Z,57.40
2023-11-11T16:07:38.364Z,58.90
2023-11-11T16:10:09.350Z,61.60
2023-11-11T16:12:38.255Z,64.40
2023-11-11T16:15:06.921Z,67.20
2023-11-11T16:17:34.575Z,71.60
2023-11-11T16:20:02.486Z,73.00
2023-11-11T16:22:35.795Z,73.70
2023-11-11T16:25:02.808Z,72.80
2023-11-11T16:27:31.082Z,71.30
2023-11-11T16:29:59.492Z,68.00
2023-11-11T16:32:27.131Z,63.70
2023-11-11T16:34:54.217Z,58.70
2023-11-11T16:37:21.508Z,60.40
2023-11-11T16:39:51.483Z,62.10
2023-11-11T16:42:18.812Z,57.00
2023-11-11T16:44:48.331Z,58.30
2023-11-11T16:47:16.492Z,55.20
2023-11-11T16:49:45.201Z,48.40
2023-11-11T16:52:13.236Z,54.20
2023-11-11T16:54:40.500Z,55.50
2023-11-11T16:57:08.379Z,58.70
2023-11-11T16:59:36.107Z,57.10
2023-11-11T17:02:03.423Z,51.20
2023-11-11T17:04:33.674Z,51.90
2023-11-11T17:09:44.348Z,45.80
2023-11-11T17:12:14.903Z,46.90
2023-11-11T17:14:41.849Z,38.00
2023-11-11T17:17:09.309Z,35.70
2023-11-11T17:19:36.718Z,35.50
2023-11-11T17:22:06.684Z,32.30
2023-11-11T17:24:36.819Z,32.10
2023-11-11T17:27:07.167Z,32.80
2023-11-11T17:29:34.210Z,27.00
2023-11-11T17:32:01.189Z,29.70
2023-11-11T17:34:28.257Z,32.10
2023-11-11T17:36:55.563Z,32.90
2023-11-11T17:39:23.258Z,32.50
2023-11-11T17:41:50.192Z,35.10
2023-11-11T17:44:18.634Z,32.20
2023-11-11T17:46:46.497Z,33.80
2023-11-11T17:49:14.393Z,25.50
2023-11-11T17:51:41.492Z,28.80
2023-11-11T17:54:08.431Z,33.30
2023-11-11T17:56:35.649Z,25.90
2023-11-11T17:59:04.548Z,26.80
2023-11-11T18:01:38.965Z,28.00
2023-11-11T18:04:07.773Z,24.90
2023-11-11T18:06:53.859Z,24.90
2023-11-11T18:09:20.865Z,27.80
2023-11-11T18:11:48.831Z,20.80
2023-11-11T18:14:17.287Z,20.70
2023-11-11T18:16:44.716Z,21.60
2023-11-11T18:19:11.915Z,27.80
2023-11-11T18:21:39.122Z,27.30
2023-11-11T18:24:07.910Z,23.80
2023-11-11T18:26:35.094Z,22.60
2023-11-11T18:29:02.181Z,20.50
2023-11-11T18:31:29.242Z,24.90
2023-11-11T18:33:57.243Z,21.30
2023-11-11T18:36:26.139Z,13.70
2023-11-11T18:38:54.163Z,15.20
2023-11-11T18:41:22.604Z,12.30
2023-11-11T18:43:50.054Z,10.90
2023-11-11T18:46:17.384Z,5.90
2023-11-11T18:48:44.566Z,1.00
2023-11-11T18:51:11.780Z,1.00
2023-11-11T18:53:39.032Z,1.00
2023-11-11T18:56:09.055Z,1.00
2023-11-11T18:58:36.138Z,1.00
2023-11-11T19:01:03.354Z,1.00
2023-11-11T19:03:30.717Z,1.00
2023-11-11T19:05:57.914Z,1.00
2023-11-11T19:08:24.959Z,1.00
2023-11-11T19:10:52.107Z,1.00
2023-11-11T19:13:19.602Z,1.00
2023-11-11T19:15:46.559Z,1.00
2023-11-11T19:18:13.903Z,1.00
2023-11-11T19:20:41.864Z,1.00
2023-11-11T19:23:09.317Z,1.00
2023-11-11T19:25:36.950Z,1.00
2023-11-11T19:28:05.061Z,1.00
2023-11-11T19:30:32.647Z,1.00
2023-11-11T19:32:59.758Z,1.00
2023-11-11T19:35:27.621Z,1.00
2023-11-11T19:37:55.422Z,1.00
2023-11-11T19:40:22.600Z,1.00
2023-11-11T19:42:49.671Z,1.00
2023-11-11T19:45:17.087Z,1.00
2023-11-11T19:47:44.680Z,1.00
2023-11-11T19:50:13.795Z,1.00
2023-11-11T19:52:41.113Z,1.00
2023-11-11T19:55:08.937Z,1.00
2023-11-11T19:57:43.800Z,1.00
2023-11-11T20:00:14.927Z,1.00
2023-11-11T20:02:42.891Z,1.00
2023-11-11T20:05:10.522Z,1.00
2023-11-11T20:07:37.891Z,1.00
2023-11-11T20:10:05.748Z,1.00
2023-11-11T20:12:33.024Z,1.00
2023-11-11T20:15:04.121Z,1.00
2023-11-11T20:17:31.813Z,1.00
2023-11-11T20:19:59.065Z,1.00
2023-11-11T20:22:26.061Z,1.00
2023-11-11T20:24:54.799Z,1.00
2023-11-11T20:27:23.197Z,1.00
2023-11-11T20:29:52.113Z,1.00
2023-11-11T20:32:19.228Z,1.00
2023-11-11T20:34:46.734Z,1.00
2023-11-11T20:37:13.796Z,1.00
2023-11-11T20:39:41.228Z,1.00
2023-11-11T20:42:11.273Z,1.00
2023-11-11T20:44:39.659Z,1.00
2023-11-11T20:47:06.734Z,1.00
2023-11-11T20:49:39.627Z,1.00
2023-11-11T20:52:06.799Z,1.00
2023-11-11T20:54:37.909Z,1.00
2023-11-11T20:57:08.297Z,1.00
2023-11-11T20:59:35.411Z,1.00
2023-11-11T21:02:02.622Z,1.00
2023-11-11T21:04:30.514Z,1.00
2023-11-11T21:07:00.430Z,1.00
2023-11-11T21:09:29.461Z,1.00
2023-11-11T21:11:56.388Z,1.00
2023-11-11T21:14:25.585Z,1.00
2023-11-11T21:16:52.688Z,1.00
2023-11-11T21:19:24.479Z,1.00
2023-11-11T21:21:51.790Z,1.00
2023-11-11T21:24:19.559Z,1.00
2023-11-11T21:26:50.983Z,1.00
2023-11-11T21:29:21.004Z,1.00
2023-11-11T21:31:48.144Z,1.00
2023-11-11T21:34:15.220Z,1.00
2023-11-11T21:36:44.732Z,1.00
2023-11-11T21:39:14.142Z,1.00
2023-11-11T21:41:41.217Z,1.00
2023-11-11T21:44:09.818Z,1.00
2023-11-11T21:46:39.830Z,1.00
2023-11-11T21:49:08.709Z,1.00
2023-11-11T21:51:35.703Z,1.00
2023-11-11T21:54:02.708Z,1.00
2023-11-11T21:56:32.775Z,1.00
2023-11-11T21:59:01.725Z,1.00
2023-11-11T22:01:28.812Z,1.00
2023-11-11T22:03:57.274Z,1.00
2023-11-11T22:06:26.253Z,1.00
2023-11-11T22:08:53.342Z,1.00
2023-11-11T22:11:23.561Z,1.00
2023-11-11T22:13:50.488Z,1.00
2023-11-11T22:16:20.693Z,1.00
2023-11-11T22:18:47.762Z,1.00
2023-11-11T22:21:14.884Z,1.00
2023-11-11T22:23:44.923Z,1.00
2023-11-11T22:26:19.308Z,1.00
2023-11-11T22:28:46.996Z,1.00
2023-11-11T22:31:14.788Z,1.00
2023-11-11T22:33:41.986Z,1.00
2023-11-11T22:36:11.086Z,1.00
2023-11-11T22:38:38.709Z,1.00
2023-11-11T22:41:09.151Z,1.00
2023-11-11T22:43:36.358Z,1.00
2023-11-11T22:46:04.295Z,1.00
2023-11-11T22:48:31.310Z,1.00
2023-11-11T22:50:59.569Z,1.00
2023-11-11T22:53:27.237Z,1.00
2023-11-11T22:55:54.173Z,1.00
2023-11-11T22:58:21.135Z,1.00
2023-11-11T23:00:49.761Z,1.00
2023-11-11T23:03:17.485Z,4.50
2023-11-11T23:05:47.576Z,10.80
2023-11-11T23:08:15.572Z,14.70
2023-11-11T23:10:45.314Z,15.70
2023-11-11T23:13:13.530Z,21.10
2023-11-11T23:15:41.030Z,22.00
2023-11-11T23:18:11.410Z,26.50
2023-11-11T23:20:41.867Z,28.70
2023-11-11T23:23:10.494Z,31.60
2023-11-11T23:25:41.124Z,34.00
2023-11-11T23:28:09.545Z,36.50
2023-11-11T23:30:37.441Z,37.70
2023-11-11T23:33:05.476Z,32.80
2023-11-11T23:35:32.715Z,36.30
2023-11-11T23:37:59.782Z,40.30
2023-11-11T23:40:27.620Z,44.50
2023-11-11T23:42:54.603Z,44.50
2023-11-11T23:45:24.788Z,46.90
2023-11-11T23:47:51.960Z,47.50
2023-11-11T23:50:20.412Z,43.70
2023-11-11T23:52:47.845Z,47.60
2023-11-11T23:55:15.841Z,48.00
2023-11-11T23:57:42.906Z,48.80
